sensor_id;sensor_type;location;lat;lon;timestamp;temperature;humidity
24814;DHT22;12904;50.088;11.414;2022-09-06T00:00:11;16.00;99.90
24814;DHT22;12904;50.088;11.414;2022-09-06T00:02:38;16.00;99.90
24814;DHT22;12904;50.088;11.414;2022-09-06T00:05:04;15.90;99.90
24814;DHT22;12904;50.088;11.414;2022-09-06T00:07:30;15.80;99.90
24814;DHT22;12904;50.088;11.414;2022-09-06T00:09:56;15.80;99.90
24814;DHT22;12904;50.088;11.414;2022-09-06T00:12:22;15.70;99.90
24814;DHT22;12904;50.088;11.414;2022-09-06T00:14:49;15.70;99.90
24814;DHT22;12904;50.088;11.414;2022-09-06T00:17:15;15.60;99.90
24814;DHT22;12904;50.088;11.414;2022-09-06T00:19:40;15.50;99.90
24814;DHT22;12904;50.088;11.414;2022-09-06T00:22:06;15.50;99.90
24814;DHT22;12904;50.088;11.414;2022-09-06T00:24:32;15.50;99.90
24814;DHT22;12904;50.088;11.414;2022-09-06T00:26:57;15.50;99.90
24814;DHT22;12904;50.088;11.414;2022-09-06T00:29:23;15.50;99.90
24814;DHT22;12904;50.088;11.414;2022-09-06T00:31:49;15.40;99.90
24814;DHT22;12904;50.088;11.414;2022-09-06T00:34:14;15.40;99.90
24814;DHT22;12904;50.088;11.414;2022-09-06T00:36:40;15.40;99.90
24814;DHT22;12904;50.088;11.414;2022-09-06T00:39:06;15.40;99.90
24814;DHT22;12904;50.088;11.414;2022-09-06T00:41:31;15.40;99.90
24814;DHT22;12904;50.088;11.414;2022-09-06T00:43:57;15.40;99.90
24814;DHT22;12904;50.088;11.414;2022-09-06T00:46:26;15.40;99.90
24814;DHT22;12904;50.088;11.414;2022-09-06T00:48:57;15.40;99.90
24814;DHT22;12904;50.088;11.414;2022-09-06T00:51:25;15.40;99.90
24814;DHT22;12904;50.088;11.414;2022-09-06T00:53:52;15.50;99.90
24814;DHT22;12904;50.088;11.414;2022-09-06T00:56:19;15.50;99.90
24814;DHT22;12904;50.088;11.414;2022-09-06T00:58:46;15.50;99.90
24814;DHT22;12904;50.088;11.414;2022-09-06T01:01:12;15.40;99.90
24814;DHT22;12904;50.088;11.414;2022-09-06T01:03:38;15.40;99.90
24814;DHT22;12904;50.088;11.414;2022-09-06T01:08:55;15.30;99.90
24814;DHT22;12904;50.088;11.414;2022-09-06T01:11:36;15.20;99.90
24814;DHT22;12904;50.088;11.414;2022-09-06T01:14:08;15.20;99.90
24814;DHT22;12904;50.088;11.414;2022-09-06T01:16:50;15.10;99.90
24814;DHT22;12904;50.088;11.414;2022-09-06T01:36:43;14.70;99.90
24814;DHT22;12904;50.088;11.414;2022-09-06T01:39:20;14.70;99.90
24814;DHT22;12904;50.088;11.414;2022-09-06T01:41:47;14.70;99.90
24814;DHT22;12904;50.088;11.414;2022-09-06T01:44:13;14.70;99.90
24814;DHT22;12904;50.088;11.414;2022-09-06T01:47:06;14.70;99.90
24814;DHT22;12904;50.088;11.414;2022-09-06T02:03:51;14.50;99.90
24814;DHT22;12904;50.088;11.414;2022-09-06T02:06:36;14.50;99.90
24814;DHT22;12904;50.088;11.414;2022-09-06T02:09:06;14.50;99.90
24814;DHT22;12904;50.088;11.414;2022-09-06T02:11:41;14.50;99.90
24814;DHT22;12904;50.088;11.414;2022-09-06T02:14:14;14.50;99.90
24814;DHT22;12904;50.088;11.414;2022-09-06T02:16:43;14.50;99.90
24814;DHT22;12904;50.088;11.414;2022-09-06T02:21:56;14.50;99.90
24814;DHT22;12904;50.088;11.414;2022-09-06T02:24:27;14.50;99.90
24814;DHT22;12904;50.088;11.414;2022-09-06T02:26:55;14.40;99.90
24814;DHT22;12904;50.088;11.414;2022-09-06T02:29:21;14.40;99.90
24814;DHT22;12904;50.088;11.414;2022-09-06T02:31:51;14.40;99.90
24814;DHT22;12904;50.088;11.414;2022-09-06T02:34:19;14.20;99.90
24814;DHT22;12904;50.088;11.414;2022-09-06T02:36:53;14.20;99.90
24814;DHT22;12904;50.088;11.414;2022-09-06T02:39:19;14.10;99.90
24814;DHT22;12904;50.088;11.414;2022-09-06T02:41:45;14.10;99.90
24814;DHT22;12904;50.088;11.414;2022-09-06T02:44:13;14.00;99.90
24814;DHT22;12904;50.088;11.414;2022-09-06T02:46:39;14.00;99.90
24814;DHT22;12904;50.088;11.414;2022-09-06T02:49:05;13.90;99.90
24814;DHT22;12904;50.088;11.414;2022-09-06T02:51:38;14.00;99.90
24814;DHT22;12904;50.088;11.414;2022-09-06T02:54:05;14.00;99.90
24814;DHT22;12904;50.088;11.414;2022-09-06T02:56:32;14.00;99.90
24814;DHT22;12904;50.088;11.414;2022-09-06T02:58:59;14.00;99.90
24814;DHT22;12904;50.088;11.414;2022-09-06T03:01:25;14.00;99.90
24814;DHT22;12904;50.088;11.414;2022-09-06T03:03:51;14.00;99.90
24814;DHT22;12904;50.088;11.414;2022-09-06T03:06:20;14.10;99.90
24814;DHT22;12904;50.088;11.414;2022-09-06T03:08:46;14.10;99.90
24814;DHT22;12904;50.088;11.414;2022-09-06T03:11:11;14.10;99.90
24814;DHT22;12904;50.088;11.414;2022-09-06T03:13:37;14.20;99.90
24814;DHT22;12904;50.088;11.414;2022-09-06T03:16:03;14.20;99.90
24814;DHT22;12904;50.088;11.414;2022-09-06T03:18:30;14.30;99.90
24814;DHT22;12904;50.088;11.414;2022-09-06T03:20:56;14.30;99.90
24814;DHT22;12904;50.088;11.414;2022-09-06T03:23:24;14.40;99.90
24814;DHT22;12904;50.088;11.414;2022-09-06T03:25:50;14.50;99.90
24814;DHT22;12904;50.088;11.414;2022-09-06T03:28:17;14.50;99.90
24814;DHT22;12904;50.088;11.414;2022-09-06T03:30:47;14.50;99.90
24814;DHT22;12904;50.088;11.414;2022-09-06T03:33:13;14.50;99.90
24814;DHT22;12904;50.088;11.414;2022-09-06T03:35:39;14.50;99.90
24814;DHT22;12904;50.088;11.414;2022-09-06T03:38:04;14.50;99.90
24814;DHT22;12904;50.088;11.414;2022-09-06T03:40:30;14.50;99.90
24814;DHT22;12904;50.088;11.414;2022-09-06T03:42:55;14.40;99.90
24814;DHT22;12904;50.088;11.414;2022-09-06T03:45:21;14.40;99.90
24814;DHT22;12904;50.088;11.414;2022-09-06T03:47:47;14.40;99.90
24814;DHT22;12904;50.088;11.414;2022-09-06T03:50:13;14.30;99.90
24814;DHT22;12904;50.088;11.414;2022-09-06T03:52:38;14.30;99.90
24814;DHT22;12904;50.088;11.414;2022-09-06T03:55:05;14.30;99.90
24814;DHT22;12904;50.088;11.414;2022-09-06T03:57:31;14.20;99.90
24814;DHT22;12904;50.088;11.414;2022-09-06T03:59:57;14.20;99.90
24814;DHT22;12904;50.088;11.414;2022-09-06T04:02:22;14.20;99.90
24814;DHT22;12904;50.088;11.414;2022-09-06T04:04:48;14.20;99.90
24814;DHT22;12904;50.088;11.414;2022-09-06T04:07:13;14.20;99.90
24814;DHT22;12904;50.088;11.414;2022-09-06T04:09:39;14.10;99.90
24814;DHT22;12904;50.088;11.414;2022-09-06T04:12:05;14.20;99.90
24814;DHT22;12904;50.088;11.414;2022-09-06T04:14:31;14.10;99.90
24814;DHT22;12904;50.088;11.414;2022-09-06T04:16:56;14.10;99.90
24814;DHT22;12904;50.088;11.414;2022-09-06T04:19:22;14.20;99.90
24814;DHT22;12904;50.088;11.414;2022-09-06T04:21:48;14.20;99.90
24814;DHT22;12904;50.088;11.414;2022-09-06T04:24:13;14.20;99.90
24814;DHT22;12904;50.088;11.414;2022-09-06T04:26:39;14.30;99.90
24814;DHT22;12904;50.088;11.414;2022-09-06T04:29:05;14.30;99.90
24814;DHT22;12904;50.088;11.414;2022-09-06T04:31:31;14.30;99.90
24814;DHT22;12904;50.088;11.414;2022-09-06T04:33:56;14.30;99.90
24814;DHT22;12904;50.088;11.414;2022-09-06T04:36:22;14.40;99.90
24814;DHT22;12904;50.088;11.414;2022-09-06T04:38:48;14.50;99.90
24814;DHT22;12904;50.088;11.414;2022-09-06T04:41:15;14.50;99.90
24814;DHT22;12904;50.088;11.414;2022-09-06T04:43:41;14.60;99.90
24814;DHT22;12904;50.088;11.414;2022-09-06T04:46:26;14.70;99.90
24814;DHT22;12904;50.088;11.414;2022-09-06T04:48:53;14.70;99.90
24814;DHT22;12904;50.088;11.414;2022-09-06T04:51:20;14.70;99.90
24814;DHT22;12904;50.088;11.414;2022-09-06T04:53:46;14.70;99.90
24814;DHT22;12904;50.088;11.414;2022-09-06T04:56:16;14.80;99.90
24814;DHT22;12904;50.088;11.414;2022-09-06T04:58:43;14.80;99.90
24814;DHT22;12904;50.088;11.414;2022-09-06T05:01:09;14.80;99.90
24814;DHT22;12904;50.088;11.414;2022-09-06T05:03:35;14.90;99.90
24814;DHT22;12904;50.088;11.414;2022-09-06T05:06:09;14.90;99.90
24814;DHT22;12904;50.088;11.414;2022-09-06T05:08:37;15.00;99.90
24814;DHT22;12904;50.088;11.414;2022-09-06T05:11:03;15.10;99.90
24814;DHT22;12904;50.088;11.414;2022-09-06T05:13:29;15.20;99.90
24814;DHT22;12904;50.088;11.414;2022-09-06T05:15:55;15.30;99.90
24814;DHT22;12904;50.088;11.414;2022-09-06T05:18:23;15.30;99.90
24814;DHT22;12904;50.088;11.414;2022-09-06T05:20:53;15.50;99.90
24814;DHT22;12904;50.088;11.414;2022-09-06T05:23:19;15.60;99.90
24814;DHT22;12904;50.088;11.414;2022-09-06T05:25:45;15.70;99.90
24814;DHT22;12904;50.088;11.414;2022-09-06T05:28:11;15.80;99.90
24814;DHT22;12904;50.088;11.414;2022-09-06T05:30:36;15.90;99.90
24814;DHT22;12904;50.088;11.414;2022-09-06T05:33:02;16.10;99.90
24814;DHT22;12904;50.088;11.414;2022-09-06T05:35:28;16.20;99.90
24814;DHT22;12904;50.088;11.414;2022-09-06T05:37:54;16.30;99.90
24814;DHT22;12904;50.088;11.414;2022-09-06T05:40:19;16.40;99.90
24814;DHT22;12904;50.088;11.414;2022-09-06T05:42:45;16.50;99.90
24814;DHT22;12904;50.088;11.414;2022-09-06T05:45:10;16.70;99.90
24814;DHT22;12904;50.088;11.414;2022-09-06T05:47:36;16.80;99.90
24814;DHT22;12904;50.088;11.414;2022-09-06T05:50:03;17.00;99.90
24814;DHT22;12904;50.088;11.414;2022-09-06T05:52:28;17.30;99.90
24814;DHT22;12904;50.088;11.414;2022-09-06T05:54:54;17.60;99.90
24814;DHT22;12904;50.088;11.414;2022-09-06T05:57:20;18.00;99.90
24814;DHT22;12904;50.088;11.414;2022-09-06T05:59:46;18.50;99.90
24814;DHT22;12904;50.088;11.414;2022-09-06T06:02:11;18.90;99.90
24814;DHT22;12904;50.088;11.414;2022-09-06T06:04:37;19.30;99.90
24814;DHT22;12904;50.088;11.414;2022-09-06T06:07:02;19.80;99.90
24814;DHT22;12904;50.088;11.414;2022-09-06T06:09:28;20.20;99.90
24814;DHT22;12904;50.088;11.414;2022-09-06T06:11:54;21.00;99.90
24814;DHT22;12904;50.088;11.414;2022-09-06T06:14:19;21.50;99.90
24814;DHT22;12904;50.088;11.414;2022-09-06T06:16:45;22.20;99.90
24814;DHT22;12904;50.088;11.414;2022-09-06T06:19:11;23.00;99.90
24814;DHT22;12904;50.088;11.414;2022-09-06T06:21:36;24.10;99.90
24814;DHT22;12904;50.088;11.414;2022-09-06T06:24:04;24.80;99.90
24814;DHT22;12904;50.088;11.414;2022-09-06T06:26:31;24.90;99.90
24814;DHT22;12904;50.088;11.414;2022-09-06T06:28:58;24.50;99.90
24814;DHT22;12904;50.088;11.414;2022-09-06T06:31:27;23.90;99.90
24814;DHT22;12904;50.088;11.414;2022-09-06T06:33:52;24.10;99.90
24814;DHT22;12904;50.088;11.414;2022-09-06T06:36:21;23.50;99.90
24814;DHT22;12904;50.088;11.414;2022-09-06T06:38:48;23.00;99.90
24814;DHT22;12904;50.088;11.414;2022-09-06T06:41:16;22.40;99.90
24814;DHT22;12904;50.088;11.414;2022-09-06T06:43:42;21.70;99.90
24814;DHT22;12904;50.088;11.414;2022-09-06T06:46:13;21.40;99.90
24814;DHT22;12904;50.088;11.414;2022-09-06T06:48:40;21.10;99.90
24814;DHT22;12904;50.088;11.414;2022-09-06T06:51:14;20.70;99.90
24814;DHT22;12904;50.088;11.414;2022-09-06T06:53:41;20.50;99.90
24814;DHT22;12904;50.088;11.414;2022-09-06T06:56:22;21.10;99.90
24814;DHT22;12904;50.088;11.414;2022-09-06T06:58:50;22.20;99.90
24814;DHT22;12904;50.088;11.414;2022-09-06T07:01:18;23.50;99.90
24814;DHT22;12904;50.088;11.414;2022-09-06T07:03:44;24.60;99.90
24814;DHT22;12904;50.088;11.414;2022-09-06T07:06:12;25.40;99.90
24814;DHT22;12904;50.088;11.414;2022-09-06T07:08:38;25.80;99.90
24814;DHT22;12904;50.088;11.414;2022-09-06T07:11:09;26.10;99.90
24814;DHT22;12904;50.088;11.414;2022-09-06T07:13:34;26.60;98.40
24814;DHT22;12904;50.088;11.414;2022-09-06T07:18:35;26.90;87.60
24814;DHT22;12904;50.088;11.414;2022-09-06T07:21:13;27.50;86.90
24814;DHT22;12904;50.088;11.414;2022-09-06T07:23:39;27.00;82.20
24814;DHT22;12904;50.088;11.414;2022-09-06T07:26:05;25.70;91.20
24814;DHT22;12904;50.088;11.414;2022-09-06T07:28:30;24.70;99.90
24814;DHT22;12904;50.088;11.414;2022-09-06T07:30:56;23.80;99.90
24814;DHT22;12904;50.088;11.414;2022-09-06T07:33:23;23.20;99.90
24814;DHT22;12904;50.088;11.414;2022-09-06T07:36:00;22.50;99.90
24814;DHT22;12904;50.088;11.414;2022-09-06T07:38:29;22.10;99.90
24814;DHT22;12904;50.088;11.414;2022-09-06T07:40:57;22.10;99.90
24814;DHT22;12904;50.088;11.414;2022-09-06T07:43:23;22.10;99.90
24814;DHT22;12904;50.088;11.414;2022-09-06T07:46:08;21.90;99.90
24814;DHT22;12904;50.088;11.414;2022-09-06T07:48:36;21.80;99.90
24814;DHT22;12904;50.088;11.414;2022-09-06T07:53:33;21.30;99.90
24814;DHT22;12904;50.088;11.414;2022-09-06T07:55:59;21.10;99.90
24814;DHT22;12904;50.088;11.414;2022-09-06T07:58:27;21.10;99.90
24814;DHT22;12904;50.088;11.414;2022-09-06T08:00:53;21.20;99.90
24814;DHT22;12904;50.088;11.414;2022-09-06T08:03:19;21.20;99.90
24814;DHT22;12904;50.088;11.414;2022-09-06T08:05:48;21.20;99.90
24814;DHT22;12904;50.088;11.414;2022-09-06T08:08:14;21.40;99.90
24814;DHT22;12904;50.088;11.414;2022-09-06T08:10:39;21.40;99.90
24814;DHT22;12904;50.088;11.414;2022-09-06T08:13:05;21.30;99.90
24814;DHT22;12904;50.088;11.414;2022-09-06T08:15:30;21.20;99.90
24814;DHT22;12904;50.088;11.414;2022-09-06T08:17:57;21.30;99.90
24814;DHT22;12904;50.088;11.414;2022-09-06T08:20:24;21.30;99.90
24814;DHT22;12904;50.088;11.414;2022-09-06T08:22:50;21.30;99.90
24814;DHT22;12904;50.088;11.414;2022-09-06T08:25:15;21.30;99.90
24814;DHT22;12904;50.088;11.414;2022-09-06T08:27:41;21.30;99.90
24814;DHT22;12904;50.088;11.414;2022-09-06T08:30:07;21.40;99.90
24814;DHT22;12904;50.088;11.414;2022-09-06T08:32:33;21.50;99.90
24814;DHT22;12904;50.088;11.414;2022-09-06T08:35:01;21.50;99.90
24814;DHT22;12904;50.088;11.414;2022-09-06T08:37:26;21.50;99.90
24814;DHT22;12904;50.088;11.414;2022-09-06T08:39:52;21.40;99.90
24814;DHT22;12904;50.088;11.414;2022-09-06T08:42:18;21.30;99.90
24814;DHT22;12904;50.088;11.414;2022-09-06T08:44:46;21.30;99.90
24814;DHT22;12904;50.088;11.414;2022-09-06T08:47:15;21.30;99.90
24814;DHT22;12904;50.088;11.414;2022-09-06T08:49:45;21.30;99.90
24814;DHT22;12904;50.088;11.414;2022-09-06T09:00:12;21.00;99.90
24814;DHT22;12904;50.088;11.414;2022-09-06T09:02:59;21.00;99.90
24814;DHT22;12904;50.088;11.414;2022-09-06T09:05:31;21.10;99.90
24814;DHT22;12904;50.088;11.414;2022-09-06T09:08:23;21.20;99.90
24814;DHT22;12904;50.088;11.414;2022-09-06T09:10:57;21.40;99.90
24814;DHT22;12904;50.088;11.414;2022-09-06T09:16:15;22.10;99.90
24814;DHT22;12904;50.088;11.414;2022-09-06T09:18:44;22.50;99.90
24814;DHT22;12904;50.088;11.414;2022-09-06T09:21:10;22.90;99.90
24814;DHT22;12904;50.088;11.414;2022-09-06T09:23:36;23.20;99.90
24814;DHT22;12904;50.088;11.414;2022-09-06T09:26:05;23.30;99.90
24814;DHT22;12904;50.088;11.414;2022-09-06T09:28:31;23.30;99.90
24814;DHT22;12904;50.088;11.414;2022-09-06T09:30:57;23.40;99.90
24814;DHT22;12904;50.088;11.414;2022-09-06T09:33:36;23.10;99.90
24814;DHT22;12904;50.088;11.414;2022-09-06T09:36:11;23.00;99.90
24814;DHT22;12904;50.088;11.414;2022-09-06T09:38:45;22.70;99.90
24814;DHT22;12904;50.088;11.414;2022-09-06T09:41:28;22.50;99.90
24814;DHT22;12904;50.088;11.414;2022-09-06T09:44:16;22.50;99.90
24814;DHT22;12904;50.088;11.414;2022-09-06T09:46:42;22.50;99.90
24814;DHT22;12904;50.088;11.414;2022-09-06T09:49:12;22.50;99.90
24814;DHT22;12904;50.088;11.414;2022-09-06T09:51:45;22.40;99.90
24814;DHT22;12904;50.088;11.414;2022-09-06T09:54:13;22.30;99.90
24814;DHT22;12904;50.088;11.414;2022-09-06T09:56:49;22.30;99.90
24814;DHT22;12904;50.088;11.414;2022-09-06T10:01:47;22.40;99.90
24814;DHT22;12904;50.088;11.414;2022-09-06T10:04:19;22.50;99.90
24814;DHT22;12904;50.088;11.414;2022-09-06T10:06:46;22.60;99.90
24814;DHT22;12904;50.088;11.414;2022-09-06T10:09:35;22.70;99.90
24814;DHT22;12904;50.088;11.414;2022-09-06T10:11:59;22.90;99.90
24814;DHT22;12904;50.088;11.414;2022-09-06T10:14:44;23.00;99.90
24814;DHT22;12904;50.088;11.414;2022-09-06T10:17:20;23.20;99.90
24814;DHT22;12904;50.088;11.414;2022-09-06T10:19:46;23.40;99.90
24814;DHT22;12904;50.088;11.414;2022-09-06T10:22:27;23.70;99.90
24814;DHT22;12904;50.088;11.414;2022-09-06T10:27:31;24.50;99.90
24814;DHT22;12904;50.088;11.414;2022-09-06T10:30:04;25.00;99.90
24814;DHT22;12904;50.088;11.414;2022-09-06T10:33:07;25.30;99.90
24814;DHT22;12904;50.088;11.414;2022-09-06T10:35:37;25.30;99.90
24814;DHT22;12904;50.088;11.414;2022-09-06T10:41:25;26.00;99.90
24814;DHT22;12904;50.088;11.414;2022-09-06T10:46:47;26.10;96.20
24814;DHT22;12904;50.088;11.414;2022-09-06T10:49:17;25.70;99.90
24814;DHT22;12904;50.088;11.414;2022-09-06T10:51:50;25.40;99.90
24814;DHT22;12904;50.088;11.414;2022-09-06T10:54:21;25.00;99.90
24814;DHT22;12904;50.088;11.414;2022-09-06T10:57:00;24.90;99.90
24814;DHT22;12904;50.088;11.414;2022-09-06T11:04:37;25.00;99.90
24814;DHT22;12904;50.088;11.414;2022-09-06T11:07:31;25.50;99.90
24814;DHT22;12904;50.088;11.414;2022-09-06T11:10:22;26.20;96.10
24814;DHT22;12904;50.088;11.414;2022-09-06T11:15:15;27.40;91.70
24814;DHT22;12904;50.088;11.414;2022-09-06T11:17:53;28.00;84.80
24814;DHT22;12904;50.088;11.414;2022-09-06T11:20:43;28.70;81.70
24814;DHT22;12904;50.088;11.414;2022-09-06T11:29:09;29.60;68.70
24814;DHT22;12904;50.088;11.414;2022-09-06T11:32:02;29.00;69.20
24814;DHT22;12904;50.088;11.414;2022-09-06T11:34:36;29.80;72.90
24814;DHT22;12904;50.088;11.414;2022-09-06T11:37:07;30.10;66.90
24814;DHT22;12904;50.088;11.414;2022-09-06T11:39:40;30.10;65.20
24814;DHT22;12904;50.088;11.414;2022-09-06T11:47:37;30.00;64.00
24814;DHT22;12904;50.088;11.414;2022-09-06T11:55:44;30.10;66.60
24814;DHT22;12904;50.088;11.414;2022-09-06T11:58:22;30.20;64.70
24814;DHT22;12904;50.088;11.414;2022-09-06T12:04:05;30.00;64.50
24814;DHT22;12904;50.088;11.414;2022-09-06T12:07:07;29.90;66.60
24814;DHT22;12904;50.088;11.414;2022-09-06T12:09:36;30.00;63.60
24814;DHT22;12904;50.088;11.414;2022-09-06T12:12:03;30.00;63.30
24814;DHT22;12904;50.088;11.414;2022-09-06T12:14:42;30.10;64.60
24814;DHT22;12904;50.088;11.414;2022-09-06T12:27:37;30.70;63.50
24814;DHT22;12904;50.088;11.414;2022-09-06T12:30:06;30.80;62.50
24814;DHT22;12904;50.088;11.414;2022-09-06T12:32:45;30.80;62.20
24814;DHT22;12904;50.088;11.414;2022-09-06T12:35:20;31.10;59.60
24814;DHT22;12904;50.088;11.414;2022-09-06T12:38:05;31.10;58.20
24814;DHT22;12904;50.088;11.414;2022-09-06T12:40:38;31.10;59.10
24814;DHT22;12904;50.088;11.414;2022-09-06T12:43:08;30.80;62.20
24814;DHT22;12904;50.088;11.414;2022-09-06T12:45:44;31.40;60.00
24814;DHT22;12904;50.088;11.414;2022-09-06T12:48:23;31.70;60.00
24814;DHT22;12904;50.088;11.414;2022-09-06T12:51:03;31.70;56.20
24814;DHT22;12904;50.088;11.414;2022-09-06T12:53:30;32.00;57.60
24814;DHT22;12904;50.088;11.414;2022-09-06T12:56:11;32.70;57.80
24814;DHT22;12904;50.088;11.414;2022-09-06T12:58:37;33.40;54.10
24814;DHT22;12904;50.088;11.414;2022-09-06T13:03:58;33.90;53.80
24814;DHT22;12904;50.088;11.414;2022-09-06T13:06:28;34.10;51.90
24814;DHT22;12904;50.088;11.414;2022-09-06T13:08:56;33.70;51.00
24814;DHT22;12904;50.088;11.414;2022-09-06T13:11:27;33.20;50.90
24814;DHT22;12904;50.088;11.414;2022-09-06T13:13:54;32.80;52.10
24814;DHT22;12904;50.088;11.414;2022-09-06T13:16:26;32.70;55.40
24814;DHT22;12904;50.088;11.414;2022-09-06T13:18:53;33.00;53.50
24814;DHT22;12904;50.088;11.414;2022-09-06T13:21:31;33.00;53.20
24814;DHT22;12904;50.088;11.414;2022-09-06T13:24:00;33.00;52.60
24814;DHT22;12904;50.088;11.414;2022-09-06T13:26:38;33.10;53.30
24814;DHT22;12904;50.088;11.414;2022-09-06T13:31:51;33.20;54.50
24814;DHT22;12904;50.088;11.414;2022-09-06T13:34:28;33.30;53.50
24814;DHT22;12904;50.088;11.414;2022-09-06T13:36:59;33.30;52.90
24814;DHT22;12904;50.088;11.414;2022-09-06T13:39:40;33.10;54.10
24814;DHT22;12904;50.088;11.414;2022-09-06T13:42:09;32.90;51.40
24814;DHT22;12904;50.088;11.414;2022-09-06T13:44:37;32.80;52.50
24814;DHT22;12904;50.088;11.414;2022-09-06T13:47:04;32.80;54.00
24814;DHT22;12904;50.088;11.414;2022-09-06T13:49:30;33.10;53.70
24814;DHT22;12904;50.088;11.414;2022-09-06T13:52:00;33.00;53.30
24814;DHT22;12904;50.088;11.414;2022-09-06T13:54:27;32.90;52.90
24814;DHT22;12904;50.088;11.414;2022-09-06T13:56:53;32.50;50.80
24814;DHT22;12904;50.088;11.414;2022-09-06T13:59:19;32.40;54.60
24814;DHT22;12904;50.088;11.414;2022-09-06T14:01:47;31.90;51.80
24814;DHT22;12904;50.088;11.414;2022-09-06T14:04:16;31.90;54.90
24814;DHT22;12904;50.088;11.414;2022-09-06T14:06:46;32.20;54.10
24814;DHT22;12904;50.088;11.414;2022-09-06T14:09:12;32.70;53.70
24814;DHT22;12904;50.088;11.414;2022-09-06T14:11:38;33.10;53.00
24814;DHT22;12904;50.088;11.414;2022-09-06T14:14:03;33.40;51.50
24814;DHT22;12904;50.088;11.414;2022-09-06T14:16:29;33.30;52.00
24814;DHT22;12904;50.088;11.414;2022-09-06T14:18:56;33.30;51.60
24814;DHT22;12904;50.088;11.414;2022-09-06T14:21:22;33.20;53.20
24814;DHT22;12904;50.088;11.414;2022-09-06T14:23:51;33.10;52.40
24814;DHT22;12904;50.088;11.414;2022-09-06T14:26:18;33.30;50.50
24814;DHT22;12904;50.088;11.414;2022-09-06T14:28:45;33.30;51.70
24814;DHT22;12904;50.088;11.414;2022-09-06T14:31:13;33.30;51.40
24814;DHT22;12904;50.088;11.414;2022-09-06T14:33:39;33.10;53.00
24814;DHT22;12904;50.088;11.414;2022-09-06T14:36:09;33.10;52.30
24814;DHT22;12904;50.088;11.414;2022-09-06T14:38:39;32.70;52.30
24814;DHT22;12904;50.088;11.414;2022-09-06T14:41:06;32.50;52.10
24814;DHT22;12904;50.088;11.414;2022-09-06T14:43:33;32.20;52.50
24814;DHT22;12904;50.088;11.414;2022-09-06T14:46:06;32.10;53.70
24814;DHT22;12904;50.088;11.414;2022-09-06T14:48:33;32.10;52.20
24814;DHT22;12904;50.088;11.414;2022-09-06T14:51:07;32.10;53.40
24814;DHT22;12904;50.088;11.414;2022-09-06T14:53:33;31.90;53.40
24814;DHT22;12904;50.088;11.414;2022-09-06T14:56:02;31.80;53.60
24814;DHT22;12904;50.088;11.414;2022-09-06T14:58:32;31.80;53.60
24814;DHT22;12904;50.088;11.414;2022-09-06T15:01:18;31.70;54.30
24814;DHT22;12904;50.088;11.414;2022-09-06T15:03:50;31.60;54.00
24814;DHT22;12904;50.088;11.414;2022-09-06T15:06:17;31.60;54.10
24814;DHT22;12904;50.088;11.414;2022-09-06T15:08:44;31.50;53.10
24814;DHT22;12904;50.088;11.414;2022-09-06T15:11:10;31.40;53.00
24814;DHT22;12904;50.088;11.414;2022-09-06T15:13:37;31.40;53.80
24814;DHT22;12904;50.088;11.414;2022-09-06T15:16:05;31.40;54.50
24814;DHT22;12904;50.088;11.414;2022-09-06T15:18:32;31.30;52.20
24814;DHT22;12904;50.088;11.414;2022-09-06T15:21:06;31.30;53.80
24814;DHT22;12904;50.088;11.414;2022-09-06T15:23:32;31.30;54.80
24814;DHT22;12904;50.088;11.414;2022-09-06T15:25:58;31.20;54.20
24814;DHT22;12904;50.088;11.414;2022-09-06T15:28:23;31.20;54.90
24814;DHT22;12904;50.088;11.414;2022-09-06T15:30:50;31.10;54.30
24814;DHT22;12904;50.088;11.414;2022-09-06T15:33:15;31.20;54.90
24814;DHT22;12904;50.088;11.414;2022-09-06T15:35:42;31.20;55.20
24814;DHT22;12904;50.088;11.414;2022-09-06T15:38:08;31.10;55.30
24814;DHT22;12904;50.088;11.414;2022-09-06T15:40:35;31.00;56.20
24814;DHT22;12904;50.088;11.414;2022-09-06T15:43:00;30.90;55.80
24814;DHT22;12904;50.088;11.414;2022-09-06T15:45:27;30.80;55.80
24814;DHT22;12904;50.088;11.414;2022-09-06T15:47:54;30.70;55.70
24814;DHT22;12904;50.088;11.414;2022-09-06T15:50:21;30.70;54.90
24814;DHT22;12904;50.088;11.414;2022-09-06T15:52:46;30.60;55.50
24814;DHT22;12904;50.088;11.414;2022-09-06T15:55:12;30.60;56.90
24814;DHT22;12904;50.088;11.414;2022-09-06T15:57:56;30.40;56.00
24814;DHT22;12904;50.088;11.414;2022-09-06T16:00:22;30.20;56.50
24814;DHT22;12904;50.088;11.414;2022-09-06T16:02:49;29.80;57.90
24814;DHT22;12904;50.088;11.414;2022-09-06T16:05:14;29.70;59.10
24814;DHT22;12904;50.088;11.414;2022-09-06T16:07:40;29.50;57.00
24814;DHT22;12904;50.088;11.414;2022-09-06T16:10:10;29.40;59.10
24814;DHT22;12904;50.088;11.414;2022-09-06T16:12:39;29.30;59.20
24814;DHT22;12904;50.088;11.414;2022-09-06T16:15:05;29.30;60.40
24814;DHT22;12904;50.088;11.414;2022-09-06T16:17:31;29.30;59.70
24814;DHT22;12904;50.088;11.414;2022-09-06T16:19:57;29.20;59.50
24814;DHT22;12904;50.088;11.414;2022-09-06T16:22:26;29.10;60.10
24814;DHT22;12904;50.088;11.414;2022-09-06T16:24:52;29.10;60.30
24814;DHT22;12904;50.088;11.414;2022-09-06T16:27:18;28.90;60.90
24814;DHT22;12904;50.088;11.414;2022-09-06T16:29:43;28.80;60.80
24814;DHT22;12904;50.088;11.414;2022-09-06T16:32:10;28.70;61.40
24814;DHT22;12904;50.088;11.414;2022-09-06T16:34:35;28.60;61.60
24814;DHT22;12904;50.088;11.414;2022-09-06T16:37:04;28.50;62.10
24814;DHT22;12904;50.088;11.414;2022-09-06T16:39:34;28.40;62.70
24814;DHT22;12904;50.088;11.414;2022-09-06T16:42:00;28.20;63.20
24814;DHT22;12904;50.088;11.414;2022-09-06T16:44:26;28.10;64.00
24814;DHT22;12904;50.088;11.414;2022-09-06T16:46:52;28.00;64.20
24814;DHT22;12904;50.088;11.414;2022-09-06T16:49:20;27.90;64.50
24814;DHT22;12904;50.088;11.414;2022-09-06T16:51:47;27.80;65.00
24814;DHT22;12904;50.088;11.414;2022-09-06T16:54:14;27.80;65.60
24814;DHT22;12904;50.088;11.414;2022-09-06T16:56:41;27.70;66.30
24814;DHT22;12904;50.088;11.414;2022-09-06T16:59:08;27.50;62.90
24814;DHT22;12904;50.088;11.414;2022-09-06T17:01:35;27.50;66.50
24814;DHT22;12904;50.088;11.414;2022-09-06T17:04:02;27.30;65.80
24814;DHT22;12904;50.088;11.414;2022-09-06T17:06:29;27.20;65.30
24814;DHT22;12904;50.088;11.414;2022-09-06T17:08:55;27.10;67.40
24814;DHT22;12904;50.088;11.414;2022-09-06T17:11:24;26.90;68.00
24814;DHT22;12904;50.088;11.414;2022-09-06T17:13:52;26.70;67.80